Terminal Aerodrome Forecast
Issued by NWS

Home | Current Version | Previous Version | Text Only | Print | Product List | Glossary On
Versions: 1 2 3 4 5 6 7 8 9 10 11 12 13 14
789
FTUS45 KABQ 230532
TAFFMN
TAF
KFMN 230532Z 2306/2406 22012G18KT P6SM SCT100
     FM231000 26013G22KT P6SM BKN060
     FM231500 26020G30KT P6SM BKN070
     FM232000 28020G30KT P6SM SCT070=

USA.gov is the U.S. government's official web portal to all federal, state and local government web resources and services.